sensor_id;sensor_type;location;lat;lon;timestamp;pressure;altitude;pressure_sealevel;temperature;humidity
14089;BME280;7120;52.890;6.040;2023-02-17T00:03:37;101693.13;;;9.91;100.00
14089;BME280;7120;52.890;6.040;2023-02-17T00:06:08;101695.84;;;9.91;100.00
14089;BME280;7120;52.890;6.040;2023-02-17T00:08:34;101689.81;;;10.00;100.00
14089;BME280;7120;52.890;6.040;2023-02-17T00:11:00;101695.28;;;10.00;100.00
14089;BME280;7120;52.890;6.040;2023-02-17T00:13:25;101679.16;;;10.03;100.00
14089;BME280;7120;52.890;6.040;2023-02-17T00:15:51;101678.06;;;10.04;100.00
14089;BME280;7120;52.890;6.040;2023-02-17T00:18:16;101673.66;;;10.13;100.00
14089;BME280;7120;52.890;6.040;2023-02-17T00:20:42;101675.34;;;10.09;100.00
14089;BME280;7120;52.890;6.040;2023-02-17T00:23:07;101686.22;;;10.14;100.00
14089;BME280;7120;52.890;6.040;2023-02-17T00:25:32;101672.59;;;10.09;100.00
14089;BME280;7120;52.890;6.040;2023-02-17T00:27:58;101670.16;;;10.08;100.00
14089;BME280;7120;52.890;6.040;2023-02-17T00:30:23;101660.28;;;10.12;100.00
14089;BME280;7120;52.890;6.040;2023-02-17T00:32:48;101660.03;;;10.08;100.00
14089;BME280;7120;52.890;6.040;2023-02-17T00:35:14;101655.97;;;9.96;100.00
14089;BME280;7120;52.890;6.040;2023-02-17T00:37:39;101665.50;;;10.03;100.00
14089;BME280;7120;52.890;6.040;2023-02-17T00:40:05;101665.50;;;10.03;100.00
14089;BME280;7120;52.890;6.040;2023-02-17T00:42:31;101661.97;;;10.03;100.00
14089;BME280;7120;52.890;6.040;2023-02-17T00:44:56;101655.63;;;10.07;100.00
14089;BME280;7120;52.890;6.040;2023-02-17T00:47:21;101647.16;;;10.14;100.00
14089;BME280;7120;52.890;6.040;2023-02-17T00:49:47;101644.19;;;10.05;100.00
14089;BME280;7120;52.890;6.040;2023-02-17T00:52:12;101642.53;;;10.04;100.00
14089;BME280;7120;52.890;6.040;2023-02-17T00:54:38;101634.09;;;9.96;100.00
14089;BME280;7120;52.890;6.040;2023-02-17T00:57:04;101625.91;;;9.96;100.00
14089;BME280;7120;52.890;6.040;2023-02-17T00:59:30;101621.25;;;10.01;100.00
14089;BME280;7120;52.890;6.040;2023-02-17T01:01:55;101625.63;;;10.02;100.00
14089;BME280;7120;52.890;6.040;2023-02-17T01:04:20;101623.69;;;10.08;100.00
14089;BME280;7120;52.890;6.040;2023-02-17T01:06:46;101641.44;;;10.10;100.00
14089;BME280;7120;52.890;6.040;2023-02-17T01:09:12;101638.41;;;10.12;100.00
14089;BME280;7120;52.890;6.040;2023-02-17T01:11:39;101644.16;;;10.15;100.00
14089;BME280;7120;52.890;6.040;2023-02-17T01:14:05;101630.81;;;9.99;100.00
14089;BME280;7120;52.890;6.040;2023-02-17T01:16:33;101642.84;;;10.03;100.00
14089;BME280;7120;52.890;6.040;2023-02-17T01:19:01;101639.22;;;10.12;100.00
14089;BME280;7120;52.890;6.040;2023-02-17T01:21:29;101648.00;;;10.04;100.00
14089;BME280;7120;52.890;6.040;2023-02-17T01:23:57;101646.91;;;10.10;100.00
14089;BME280;7120;52.890;6.040;2023-02-17T01:26:24;101640.34;;;10.06;100.00
14089;BME280;7120;52.890;6.040;2023-02-17T01:28:50;101640.91;;;10.08;100.00
14089;BME280;7120;52.890;6.040;2023-02-17T01:31:17;101639.00;;;10.09;100.00
14089;BME280;7120;52.890;6.040;2023-02-17T01:33:42;101634.81;;;10.22;100.00
14089;BME280;7120;52.890;6.040;2023-02-17T01:36:10;101635.16;;;10.10;100.00
14089;BME280;7120;52.890;6.040;2023-02-17T01:38:36;101631.03;;;10.17;100.00
14089;BME280;7120;52.890;6.040;2023-02-17T01:41:03;101616.53;;;10.22;100.00
14089;BME280;7120;52.890;6.040;2023-02-17T01:43:29;101612.44;;;10.14;100.00
14089;BME280;7120;52.890;6.040;2023-02-17T01:46:01;101623.69;;;10.03;100.00
14089;BME280;7120;52.890;6.040;2023-02-17T01:48:48;101632.13;;;10.11;100.00
14089;BME280;7120;52.890;6.040;2023-02-17T01:53:44;101627.75;;;10.15;100.00
14089;BME280;7120;52.890;6.040;2023-02-17T01:56:13;101624.16;;;10.30;100.00
14089;BME280;7120;52.890;6.040;2023-02-17T01:58:42;101621.25;;;10.01;100.00
14089;BME280;7120;52.890;6.040;2023-02-17T02:01:08;101616.25;;;10.18;100.00
14089;BME280;7120;52.890;6.040;2023-02-17T02:03:35;101610.78;;;10.18;100.00
14089;BME280;7120;52.890;6.040;2023-02-17T02:06:06;101604.22;;;10.14;100.00
14089;BME280;7120;52.890;6.040;2023-02-17T02:08:51;101593.34;;;10.04;100.00
14089;BME280;7120;52.890;6.040;2023-02-17T02:11:18;101611.59;;;10.19;100.00
14089;BME280;7120;52.890;6.040;2023-02-17T02:13:44;101615.22;;;10.09;100.00
14089;BME280;7120;52.890;6.040;2023-02-17T02:16:19;101619.28;;;10.12;100.00
14089;BME280;7120;52.890;6.040;2023-02-17T02:19:12;101603.09;;;10.21;100.00
14089;BME280;7120;52.890;6.040;2023-02-17T02:24:38;101599.84;;;10.18;100.00
14089;BME280;7120;52.890;6.040;2023-02-17T02:30:01;101586.50;;;10.07;100.00
14089;BME280;7120;52.890;6.040;2023-02-17T02:32:47;101593.28;;;10.25;100.00
14089;BME280;7120;52.890;6.040;2023-02-17T02:35:19;101573.09;;;10.10;100.00
14089;BME280;7120;52.890;6.040;2023-02-17T02:38:05;101571.78;;;10.03;100.00
14089;BME280;7120;52.890;6.040;2023-02-17T02:40:44;101557.22;;;10.23;100.00
14089;BME280;7120;52.890;6.040;2023-02-17T02:43:11;101552.88;;;10.11;100.00
14089;BME280;7120;52.890;6.040;2023-02-17T02:45:36;101548.72;;;10.19;100.00
14089;BME280;7120;52.890;6.040;2023-02-17T02:48:02;101543.56;;;10.23;100.00
14089;BME280;7120;52.890;6.040;2023-02-17T02:50:43;101538.13;;;10.07;100.00
14089;BME280;7120;52.890;6.040;2023-02-17T02:53:33;101535.94;;;10.09;100.00
14089;BME280;7120;52.890;6.040;2023-02-17T02:56:29;101527.28;;;9.92;100.00
14089;BME280;7120;52.890;6.040;2023-02-17T03:07:18;101529.69;;;10.04;100.00
14089;BME280;7120;52.890;6.040;2023-02-17T03:09:54;101527.25;;;9.97;100.00
14089;BME280;7120;52.890;6.040;2023-02-17T03:12:21;101535.94;;;10.09;100.00
14089;BME280;7120;52.890;6.040;2023-02-17T03:14:49;101522.06;;;10.01;100.00
14089;BME280;7120;52.890;6.040;2023-02-17T03:17:15;101497.78;;;9.89;100.00
14089;BME280;7120;52.890;6.040;2023-02-17T03:19:41;101491.28;;;9.80;100.00
14089;BME280;7120;52.890;6.040;2023-02-17T03:22:14;101496.41;;;9.86;100.00
14089;BME280;7120;52.890;6.040;2023-02-17T03:24:42;101480.06;;;9.81;100.00
14089;BME280;7120;52.890;6.040;2023-02-17T03:27:07;101472.13;;;9.85;100.00
14089;BME280;7120;52.890;6.040;2023-02-17T03:29:33;101488.47;;;9.95;100.00
14089;BME280;7120;52.890;6.040;2023-02-17T03:31:58;101472.47;;;9.73;100.00
14089;BME280;7120;52.890;6.040;2023-02-17T03:34:24;101483.88;;;9.85;100.00
14089;BME280;7120;52.890;6.040;2023-02-17T03:36:49;101470.81;;;9.77;100.00
14089;BME280;7120;52.890;6.040;2023-02-17T03:39:15;101485.75;;;9.90;100.00
14089;BME280;7120;52.890;6.040;2023-02-17T03:41:41;101479.22;;;9.86;100.00
14089;BME280;7120;52.890;6.040;2023-02-17T03:44:06;101460.75;;;9.68;100.00
14089;BME280;7120;52.890;6.040;2023-02-17T03:46:32;101479.78;;;9.83;100.00
14089;BME280;7120;52.890;6.040;2023-02-17T03:48:57;101471.91;;;9.76;100.00
14089;BME280;7120;52.890;6.040;2023-02-17T03:51:23;101482.44;;;9.93;100.00
14089;BME280;7120;52.890;6.040;2023-02-17T03:53:49;101475.66;;;9.90;100.00
14089;BME280;7120;52.890;6.040;2023-02-17T03:56:15;101476.56;;;9.71;100.00
14089;BME280;7120;52.890;6.040;2023-02-17T03:58:40;101472.44;;;9.78;100.00
14089;BME280;7120;52.890;6.040;2023-02-17T04:01:08;101480.88;;;9.87;100.00
14089;BME280;7120;52.890;6.040;2023-02-17T04:03:34;101487.16;;;9.87;100.00
14089;BME280;7120;52.890;6.040;2023-02-17T04:05:59;101489.91;;;9.77;100.00
14089;BME280;7120;52.890;6.040;2023-02-17T04:08:25;101482.53;;;9.78;100.00
14089;BME280;7120;52.890;6.040;2023-02-17T04:10:56;101480.59;;;9.83;100.00
14089;BME280;7120;52.890;6.040;2023-02-17T04:13:22;101478.91;;;9.93;99.91
14089;BME280;7120;52.890;6.040;2023-02-17T04:15:48;101464.31;;;9.63;100.00
14089;BME280;7120;52.890;6.040;2023-02-17T04:18:14;101471.09;;;9.76;100.00
14089;BME280;7120;52.890;6.040;2023-02-17T04:20:40;101455.31;;;9.57;100.00
14089;BME280;7120;52.890;6.040;2023-02-17T04:23:05;101448.47;;;9.65;100.00
14089;BME280;7120;52.890;6.040;2023-02-17T04:25:35;101436.78;;;9.59;100.00
14089;BME280;7120;52.890;6.040;2023-02-17T04:28:03;101440.81;;;9.67;100.00
14089;BME280;7120;52.890;6.040;2023-02-17T04:30:28;101458.56;;;9.64;100.00
14089;BME280;7120;52.890;6.040;2023-02-17T04:32:54;101464.63;;;9.56;100.00
14089;BME280;7120;52.890;6.040;2023-02-17T04:35:19;101453.09;;;9.64;100.00
14089;BME280;7120;52.890;6.040;2023-02-17T04:37:45;101433.25;;;9.54;100.00
14089;BME280;7120;52.890;6.040;2023-02-17T04:40:10;101421.53;;;9.43;100.00
14089;BME280;7120;52.890;6.040;2023-02-17T04:42:36;101406.81;;;9.39;100.00
14089;BME280;7120;52.890;6.040;2023-02-17T04:45:03;101419.06;;;9.47;100.00
14089;BME280;7120;52.890;6.040;2023-02-17T04:47:29;101424.31;;;9.33;100.00
14089;BME280;7120;52.890;6.040;2023-02-17T04:49:54;101431.41;;;9.34;100.00
14089;BME280;7120;52.890;6.040;2023-02-17T04:52:20;101438.47;;;9.45;100.00
14089;BME280;7120;52.890;6.040;2023-02-17T04:54:45;101427.34;;;9.31;100.00
14089;BME280;7120;52.890;6.040;2023-02-17T04:57:10;101436.56;;;9.41;100.00
14089;BME280;7120;52.890;6.040;2023-02-17T04:59:36;101436.00;;;9.44;100.00
14089;BME280;7120;52.890;6.040;2023-02-17T05:02:01;101437.91;;;9.48;100.00
14089;BME280;7120;52.890;6.040;2023-02-17T05:04:26;101443.41;;;9.38;100.00
14089;BME280;7120;52.890;6.040;2023-02-17T05:06:52;101441.22;;;9.35;100.00
14089;BME280;7120;52.890;6.040;2023-02-17T05:09:18;101449.94;;;9.37;100.00
14089;BME280;7120;52.890;6.040;2023-02-17T05:11:43;101449.41;;;9.30;100.00
14089;BME280;7120;52.890;6.040;2023-02-17T05:14:09;101453.78;;;9.36;100.00
14089;BME280;7120;52.890;6.040;2023-02-17T05:16:34;101457.06;;;9.38;100.00
14089;BME280;7120;52.890;6.040;2023-02-17T05:19:00;101462.25;;;9.40;100.00
14089;BME280;7120;52.890;6.040;2023-02-17T05:21:25;101455.91;;;9.44;100.00
14089;BME280;7120;52.890;6.040;2023-02-17T05:23:50;101449.09;;;9.52;100.00
14089;BME280;7120;52.890;6.040;2023-02-17T05:26:16;101445.50;;;9.51;100.00
14089;BME280;7120;52.890;6.040;2023-02-17T05:28:41;101452.06;;;9.60;100.00
14089;BME280;7120;52.890;6.040;2023-02-17T05:31:07;101422.31;;;9.54;100.00
14089;BME280;7120;52.890;6.040;2023-02-17T05:33:32;101415.94;;;9.69;100.00
14089;BME280;7120;52.890;6.040;2023-02-17T05:36:02;101405.00;;;9.74;100.00
14089;BME280;7120;52.890;6.040;2023-02-17T05:38:28;101405.91;;;9.59;100.00
14089;BME280;7120;52.890;6.040;2023-02-17T05:40:53;101397.22;;;9.52;100.00
14089;BME280;7120;52.890;6.040;2023-02-17T05:43:19;101392.31;;;9.44;100.00
14089;BME280;7120;52.890;6.040;2023-02-17T05:45:44;101405.34;;;9.57;100.00
14089;BME280;7120;52.890;6.040;2023-02-17T05:48:09;101414.38;;;9.57;100.00
14089;BME280;7120;52.890;6.040;2023-02-17T05:50:35;101404.56;;;9.51;100.00
14089;BME280;7120;52.890;6.040;2023-02-17T05:53:00;101410.34;;;9.45;100.00
14089;BME280;7120;52.890;6.040;2023-02-17T05:55:25;101411.69;;;9.52;100.00
14089;BME280;7120;52.890;6.040;2023-02-17T05:57:51;101399.44;;;9.45;100.00
14089;BME280;7120;52.890;6.040;2023-02-17T06:00:16;101410.88;;;9.52;100.00
14089;BME280;7120;52.890;6.040;2023-02-17T06:02:42;101395.59;;;9.46;100.00
14089;BME280;7120;52.890;6.040;2023-02-17T06:05:08;101413.75;;;9.71;100.00
14089;BME280;7120;52.890;6.040;2023-02-17T06:07:33;101414.63;;;9.66;100.00
14089;BME280;7120;52.890;6.040;2023-02-17T06:09:59;101402.38;;;9.58;100.00
14089;BME280;7120;52.890;6.040;2023-02-17T06:12:24;101399.31;;;9.65;100.00
14089;BME280;7120;52.890;6.040;2023-02-17T06:14:50;101377.53;;;9.50;100.00
14089;BME280;7120;52.890;6.040;2023-02-17T06:17:15;101385.19;;;9.53;100.00
14089;BME280;7120;52.890;6.040;2023-02-17T06:19:40;101402.59;;;9.62;100.00
14089;BME280;7120;52.890;6.040;2023-02-17T06:22:06;101378.63;;;9.54;100.00
14089;BME280;7120;52.890;6.040;2023-02-17T06:24:31;101390.38;;;9.54;100.00
14089;BME280;7120;52.890;6.040;2023-02-17T06:26:56;101384.69;;;9.46;100.00
14089;BME280;7120;52.890;6.040;2023-02-17T06:29:22;101391.66;;;9.67;100.00
14089;BME280;7120;52.890;6.040;2023-02-17T06:31:47;101383.28;;;9.48;100.00
14089;BME280;7120;52.890;6.040;2023-02-17T06:34:12;101374.16;;;9.73;100.00
14089;BME280;7120;52.890;6.040;2023-02-17T06:36:38;101360.56;;;9.58;100.00
14089;BME280;7120;52.890;6.040;2023-02-17T06:39:03;101383.16;;;9.74;100.00
14089;BME280;7120;52.890;6.040;2023-02-17T06:41:29;101384.25;;;9.73;100.00
14089;BME280;7120;52.890;6.040;2023-02-17T06:43:54;101377.41;;;9.75;100.00
14089;BME280;7120;52.890;6.040;2023-02-17T06:46:20;101381.97;;;9.85;100.00
14089;BME280;7120;52.890;6.040;2023-02-17T06:48:45;101376.56;;;9.80;100.00
14089;BME280;7120;52.890;6.040;2023-02-17T06:51:11;101380.38;;;9.79;100.00
14089;BME280;7120;52.890;6.040;2023-02-17T06:53:36;101387.81;;;9.73;100.00
14089;BME280;7120;52.890;6.040;2023-02-17T06:56:02;101388.84;;;9.77;100.00
14089;BME280;7120;52.890;6.040;2023-02-17T06:58:27;101367.59;;;9.69;100.00
14089;BME280;7120;52.890;6.040;2023-02-17T07:00:53;101368.94;;;9.72;100.00
14089;BME280;7120;52.890;6.040;2023-02-17T07:03:18;101379.31;;;9.80;100.00
14089;BME280;7120;52.890;6.040;2023-02-17T07:05:43;101370.72;;;9.91;100.00
14089;BME280;7120;52.890;6.040;2023-02-17T07:08:09;101354.91;;;9.88;100.00
14089;BME280;7120;52.890;6.040;2023-02-17T07:10:36;101372.53;;;10.06;100.00
14089;BME280;7120;52.890;6.040;2023-02-17T07:13:02;101364.81;;;10.13;100.00
14089;BME280;7120;52.890;6.040;2023-02-17T07:15:27;101366.25;;;10.06;100.00
14089;BME280;7120;52.890;6.040;2023-02-17T07:17:52;101359.75;;;9.97;100.00
14089;BME280;7120;52.890;6.040;2023-02-17T07:20:18;101376.97;;;9.97;100.00
14089;BME280;7120;52.890;6.040;2023-02-17T07:22:43;101365.91;;;10.12;100.00
14089;BME280;7120;52.890;6.040;2023-02-17T07:25:09;101344.88;;;10.13;100.00
14089;BME280;7120;52.890;6.040;2023-02-17T07:27:35;101342.09;;;10.18;100.00
14089;BME280;7120;52.890;6.040;2023-02-17T07:30:01;101360.59;;;10.31;100.00
14089;BME280;7120;52.890;6.040;2023-02-17T07:32:26;101350.59;;;10.16;100.00
14089;BME280;7120;52.890;6.040;2023-02-17T07:34:52;101366.09;;;10.26;100.00
14089;BME280;7120;52.890;6.040;2023-02-17T07:37:17;101366.59;;;10.33;100.00
14089;BME280;7120;52.890;6.040;2023-02-17T07:39:46;101377.84;;;10.22;100.00
14089;BME280;7120;52.890;6.040;2023-02-17T07:42:11;101367.66;;;10.37;100.00
14089;BME280;7120;52.890;6.040;2023-02-17T07:44:37;101391.22;;;10.28;100.00
14089;BME280;7120;52.890;6.040;2023-02-17T07:47:02;101349.84;;;10.40;100.00
14089;BME280;7120;52.890;6.040;2023-02-17T07:49:27;101381.34;;;10.37;100.00
14089;BME280;7120;52.890;6.040;2023-02-17T07:51:53;101372.06;;;10.33;100.00
14089;BME280;7120;52.890;6.040;2023-02-17T07:54:18;101385.44;;;10.35;100.00
14089;BME280;7120;52.890;6.040;2023-02-17T07:56:44;101363.91;;;10.28;100.00
14089;BME280;7120;52.890;6.040;2023-02-17T07:59:10;101371.84;;;10.30;100.00
14089;BME280;7120;52.890;6.040;2023-02-17T08:01:36;101387.84;;;10.41;100.00
14089;BME280;7120;52.890;6.040;2023-02-17T08:04:02;101396.81;;;10.47;100.00
14089;BME280;7120;52.890;6.040;2023-02-17T08:06:29;101388.38;;;10.43;100.00
14089;BME280;7120;52.890;6.040;2023-02-17T08:08:55;101382.50;;;10.55;100.00
14089;BME280;7120;52.890;6.040;2023-02-17T08:11:40;101355.25;;;10.50;100.00
14089;BME280;7120;52.890;6.040;2023-02-17T08:14:27;101365.91;;;10.47;100.00
14089;BME280;7120;52.890;6.040;2023-02-17T08:16:52;101367.03;;;10.45;100.00
14089;BME280;7120;52.890;6.040;2023-02-17T08:19:18;101354.66;;;10.53;100.00
14089;BME280;7120;52.890;6.040;2023-02-17T08:21:43;101361.19;;;10.57;100.00
14089;BME280;7120;52.890;6.040;2023-02-17T08:24:09;101345.81;;;10.61;100.00
14089;BME280;7120;52.890;6.040;2023-02-17T08:26:34;101360.53;;;10.65;100.00
14089;BME280;7120;52.890;6.040;2023-02-17T08:29:00;101367.13;;;10.64;100.00
14089;BME280;7120;52.890;6.040;2023-02-17T08:31:30;101363.31;;;10.60;100.00
14089;BME280;7120;52.890;6.040;2023-02-17T08:33:57;101374.66;;;10.49;100.00
14089;BME280;7120;52.890;6.040;2023-02-17T08:36:24;101378.44;;;10.53;100.00
14089;BME280;7120;52.890;6.040;2023-02-17T08:38:51;101349.06;;;10.63;100.00
14089;BME280;7120;52.890;6.040;2023-02-17T08:41:19;101369.31;;;10.62;100.00
14089;BME280;7120;52.890;6.040;2023-02-17T08:43:45;101368.41;;;10.72;99.89
14089;BME280;7120;52.890;6.040;2023-02-17T08:46:11;101354.13;;;10.75;100.00
14089;BME280;7120;52.890;6.040;2023-02-17T08:48:36;101356.56;;;10.77;100.00
14089;BME280;7120;52.890;6.040;2023-02-17T08:51:03;101366.66;;;10.81;99.79
14089;BME280;7120;52.890;6.040;2023-02-17T08:53:29;101359.63;;;10.75;99.28
14089;BME280;7120;52.890;6.040;2023-02-17T08:55:55;101342.25;;;10.85;99.73
14089;BME280;7120;52.890;6.040;2023-02-17T08:58:20;101326.72;;;10.80;99.33
14089;BME280;7120;52.890;6.040;2023-02-17T09:00:46;101323.88;;;10.90;100.00
14089;BME280;7120;52.890;6.040;2023-02-17T09:03:11;101319.75;;;10.93;99.42
14089;BME280;7120;52.890;6.040;2023-02-17T09:05:37;101335.63;;;10.91;99.36
14089;BME280;7120;52.890;6.040;2023-02-17T09:08:03;101325.69;;;11.00;98.77
14089;BME280;7120;52.890;6.040;2023-02-17T09:10:29;101330.03;;;11.01;98.44
14089;BME280;7120;52.890;6.040;2023-02-17T09:12:54;101318.50;;;11.04;98.39
14089;BME280;7120;52.890;6.040;2023-02-17T09:15:20;101329.13;;;11.06;97.82
14089;BME280;7120;52.890;6.040;2023-02-17T09:17:45;101336.72;;;10.90;97.90
14089;BME280;7120;52.890;6.040;2023-02-17T09:20:11;101354.13;;;10.99;98.78
14089;BME280;7120;52.890;6.040;2023-02-17T09:22:36;101349.53;;;10.94;99.11
14089;BME280;7120;52.890;6.040;2023-02-17T09:25:03;101345.88;;;11.04;98.12
14089;BME280;7120;52.890;6.040;2023-02-17T09:27:29;101350.34;;;10.95;98.86
14089;BME280;7120;52.890;6.040;2023-02-17T09:29:55;101341.00;;;11.01;98.79
14089;BME280;7120;52.890;6.040;2023-02-17T09:32:20;101330.41;;;11.13;97.83
14089;BME280;7120;52.890;6.040;2023-02-17T09:34:45;101350.69;;;11.12;97.43
14089;BME280;7120;52.890;6.040;2023-02-17T09:37:18;101362.03;;;11.24;97.28
14089;BME280;7120;52.890;6.040;2023-02-17T09:39:44;101356.72;;;11.33;96.95
14089;BME280;7120;52.890;6.040;2023-02-17T09:42:24;101362.91;;;11.20;97.04
14089;BME280;7120;52.890;6.040;2023-02-17T09:45:00;101337.88;;;10.84;97.19
14089;BME280;7120;52.890;6.040;2023-02-17T09:47:35;101348.75;;;11.13;98.18
14089;BME280;7120;52.890;6.040;2023-02-17T09:52:46;101327.81;;;11.03;97.43
14089;BME280;7120;52.890;6.040;2023-02-17T10:00:24;101347.69;;;11.33;96.18
14089;BME280;7120;52.890;6.040;2023-02-17T10:05:27;101370.19;;;11.30;96.38
14089;BME280;7120;52.890;6.040;2023-02-17T10:08:00;101384.34;;;11.37;95.72
14089;BME280;7120;52.890;6.040;2023-02-17T10:10:31;101386.22;;;11.17;95.33
14089;BME280;7120;52.890;6.040;2023-02-17T10:13:01;101377.59;;;11.29;96.25
14089;BME280;7120;52.890;6.040;2023-02-17T10:15:30;101371.06;;;11.25;95.50
14089;BME280;7120;52.890;6.040;2023-02-17T10:21:03;101423.69;;;11.41;95.59
14089;BME280;7120;52.890;6.040;2023-02-17T10:23:28;101396.56;;;11.20;96.49
14089;BME280;7120;52.890;6.040;2023-02-17T10:26:09;101406.72;;;11.20;95.64
14089;BME280;7120;52.890;6.040;2023-02-17T10:29:16;101396.41;;;11.54;94.28
14089;BME280;7120;52.890;6.040;2023-02-17T10:31:46;101383.88;;;11.30;95.06
14089;BME280;7120;52.890;6.040;2023-02-17T10:39:52;101404.94;;;11.53;93.77
14089;BME280;7120;52.890;6.040;2023-02-17T10:42:31;101395.03;;;11.57;93.11
14089;BME280;7120;52.890;6.040;2023-02-17T10:45:14;101399.97;;;11.55;93.27
14089;BME280;7120;52.890;6.040;2023-02-17T10:47:43;101425.81;;;11.68;93.21
14089;BME280;7120;52.890;6.040;2023-02-17T10:50:20;101403.28;;;11.52;93.30
14089;BME280;7120;52.890;6.040;2023-02-17T10:52:47;101431.88;;;11.46;93.15
14089;BME280;7120;52.890;6.040;2023-02-17T10:57:47;101400.88;;;11.50;92.61
14089;BME280;7120;52.890;6.040;2023-02-17T11:00:16;101416.63;;;11.59;93.33
14089;BME280;7120;52.890;6.040;2023-02-17T11:02:46;101425.50;;;11.69;92.98
14089;BME280;7120;52.890;6.040;2023-02-17T11:05:25;101426.72;;;11.63;92.07
14089;BME280;7120;52.890;6.040;2023-02-17T11:08:26;101422.13;;;11.59;93.00
14089;BME280;7120;52.890;6.040;2023-02-17T11:11:05;101416.22;;;11.70;92.12
14089;BME280;7120;52.890;6.040;2023-02-17T11:15:59;101410.09;;;11.54;91.46
14089;BME280;7120;52.890;6.040;2023-02-17T11:18:31;101409.53;;;11.58;92.51
14089;BME280;7120;52.890;6.040;2023-02-17T11:21:04;101413.97;;;11.53;91.97
14089;BME280;7120;52.890;6.040;2023-02-17T11:23:30;101419.13;;;11.55;92.09
14089;BME280;7120;52.890;6.040;2023-02-17T11:26:15;101426.13;;;11.66;92.36
14089;BME280;7120;52.890;6.040;2023-02-17T11:28:40;101422.06;;;11.64;91.68
14089;BME280;7120;52.890;6.040;2023-02-17T11:31:06;101415.09;;;11.71;91.97
14089;BME280;7120;52.890;6.040;2023-02-17T11:33:37;101421.91;;;11.74;91.12
14089;BME280;7120;52.890;6.040;2023-02-17T11:36:06;101422.06;;;11.64;91.66
14089;BME280;7120;52.890;6.040;2023-02-17T11:38:44;101435.59;;;11.74;92.22
14089;BME280;7120;52.890;6.040;2023-02-17T11:41:09;101419.66;;;11.76;91.40
14089;BME280;7120;52.890;6.040;2023-02-17T11:43:36;101410.53;;;11.86;90.66
14089;BME280;7120;52.890;6.040;2023-02-17T11:46:21;101432.22;;;12.20;89.09
14089;BME280;7120;52.890;6.040;2023-02-17T12:11:19;101434.78;;;12.30;87.73
14089;BME280;7120;52.890;6.040;2023-02-17T12:13:58;101442.00;;;12.58;86.67
14089;BME280;7120;52.890;6.040;2023-02-17T12:16:28;101452.28;;;12.67;86.60
14089;BME280;7120;52.890;6.040;2023-02-17T12:30:02;101436.34;;;12.69;85.25
14089;BME280;7120;52.890;6.040;2023-02-17T12:35:21;101464.47;;;12.60;86.06
14089;BME280;7120;52.890;6.040;2023-02-17T12:38:00;101458.03;;;12.51;86.05
14089;BME280;7120;52.890;6.040;2023-02-17T12:43:07;101463.31;;;13.40;83.46
14089;BME280;7120;52.890;6.040;2023-02-17T12:45:41;101446.28;;;13.11;83.09
14089;BME280;7120;52.890;6.040;2023-02-17T12:50:51;101452.69;;;13.61;81.78
14089;BME280;7120;52.890;6.040;2023-02-17T12:53:41;101464.28;;;13.58;81.65
14089;BME280;7120;52.890;6.040;2023-02-17T12:58:51;101459.72;;;13.54;80.82
14089;BME280;7120;52.890;6.040;2023-02-17T13:01:18;101482.41;;;13.73;80.75
14089;BME280;7120;52.890;6.040;2023-02-17T13:03:46;101474.69;;;13.61;81.66
14089;BME280;7120;52.890;6.040;2023-02-17T13:06:22;101471.00;;;13.38;82.05
14089;BME280;7120;52.890;6.040;2023-02-17T13:08:55;101472.81;;;13.15;82.57
14089;BME280;7120;52.890;6.040;2023-02-17T13:11:30;101476.91;;;13.32;82.53
14089;BME280;7120;52.890;6.040;2023-02-17T13:14:09;101504.13;;;13.47;82.12
14089;BME280;7120;52.890;6.040;2023-02-17T13:16:42;101476.81;;;13.23;82.80
14089;BME280;7120;52.890;6.040;2023-02-17T13:19:08;101481.66;;;12.99;83.13
14089;BME280;7120;52.890;6.040;2023-02-17T13:21:33;101466.81;;;13.00;83.41
14089;BME280;7120;52.890;6.040;2023-02-17T13:24:12;101487.66;;;13.14;83.70
14089;BME280;7120;52.890;6.040;2023-02-17T13:26:42;101479.91;;;13.03;83.63
14089;BME280;7120;52.890;6.040;2023-02-17T13:31:54;101485.53;;;12.65;84.65
14089;BME280;7120;52.890;6.040;2023-02-17T13:37:01;101490.00;;;12.75;85.17
14089;BME280;7120;52.890;6.040;2023-02-17T13:39:33;101514.59;;;12.66;85.39
14089;BME280;7120;52.890;6.040;2023-02-17T13:41:59;101501.00;;;12.75;84.84
14089;BME280;7120;52.890;6.040;2023-02-17T13:44:40;101501.66;;;12.85;84.16
14089;BME280;7120;52.890;6.040;2023-02-17T13:49:52;101506.53;;;12.88;83.70
14089;BME280;7120;52.890;6.040;2023-02-17T13:52:22;101512.34;;;13.01;83.83
14089;BME280;7120;52.890;6.040;2023-02-17T13:57:36;101519.59;;;13.10;82.96
14089;BME280;7120;52.890;6.040;2023-02-17T14:00:23;101522.09;;;12.93;83.45
14089;BME280;7120;52.890;6.040;2023-02-17T14:02:55;101515.78;;;12.60;83.75
14089;BME280;7120;52.890;6.040;2023-02-17T14:05:45;101528.09;;;12.62;84.22
14089;BME280;7120;52.890;6.040;2023-02-17T14:10:48;101519.16;;;12.38;84.75
14089;BME280;7120;52.890;6.040;2023-02-17T14:13:14;101528.63;;;12.46;85.11
14089;BME280;7120;52.890;6.040;2023-02-17T14:15:57;101525.06;;;12.45;84.56
14089;BME280;7120;52.890;6.040;2023-02-17T14:18:35;101538.72;;;12.50;84.67
14089;BME280;7120;52.890;6.040;2023-02-17T14:21:10;101551.38;;;12.65;84.96
14089;BME280;7120;52.890;6.040;2023-02-17T14:23:41;101540.81;;;12.91;83.79
14089;BME280;7120;52.890;6.040;2023-02-17T14:26:14;101523.59;;;12.85;83.29
14089;BME280;7120;52.890;6.040;2023-02-17T14:28:55;101513.63;;;12.76;83.97
14089;BME280;7120;52.890;6.040;2023-02-17T14:31:22;101562.50;;;13.06;83.43
14089;BME280;7120;52.890;6.040;2023-02-17T14:33:56;101552.44;;;13.02;83.35
14089;BME280;7120;52.890;6.040;2023-02-17T14:38:57;101535.16;;;12.82;83.35
14089;BME280;7120;52.890;6.040;2023-02-17T14:41:23;101544.25;;;12.83;83.91
14089;BME280;7120;52.890;6.040;2023-02-17T14:43:49;101541.63;;;12.91;82.58
14089;BME280;7120;52.890;6.040;2023-02-17T14:46:14;101543.22;;;12.79;83.24
14089;BME280;7120;52.890;6.040;2023-02-17T14:48:43;101538.19;;;13.00;82.59